Time;durP1;ratioP1;P1;durP2;ratioP2;P2;SDS_P1;SDS_P2;PMS_P1;PMS_P2;Temp;Humidity;BMP_temperature;BMP_pressure;BME280_temperature;BME280_humidity;BME280_pressure;Samples;Min_cycle;Max_cycle;Signal;HPM_P1;HPM_P2
2023/12/20 00:00:01;;;;;;;;;;;;;;;;;;10350245;28;20029;-90
2023/12/20 00:05:07;;;;;;;;;;;;;;;;;;10387853;28;19914;-92
2023/12/20 00:15:37;;;;;;;;;;;;;;;;;;10436674;23;19930;-88
2023/12/20 00:48:18;;;;;;;;;;;;;;;;;;12195554;23;19925;-88
2023/12/20 01:04:27;;;;;;;;;;;;;;;;;;10736234;23;20013;-94
2023/12/20 01:15:47;;;;;;;;;;;;;;;;;;11826165;23;19948;-87
2023/12/20 01:20:48;;;;;;;;;;;;;;;;;;10336680;28;19922;-86
2023/12/20 01:31:02;;;;;;;;;;;;;;;;;;10381897;23;19954;-93
2023/12/20 01:36:18;;;;;;;;;;;;;;;;;;10346519;28;19963;-93
2023/12/20 01:41:29;;;;;;;;;;;;;;;;;;10508181;23;19933;-90
2023/12/20 02:08:00;;;;;;;;;;;;;;;;;;10374355;28;19929;-89
2023/12/20 02:13:01;;;;;;;;;;;;;;;;;;10279531;28;19926;-89
2023/12/20 02:18:07;;;;;;;;;;;;;;;;;;10422256;23;19926;-89
2023/12/20 02:23:07;;;;;;;;;;;;;;;;;;10337940;28;20349;-88
2023/12/20 02:28:08;;;;;;;;;;;;;;;;;;10365497;28;19949;-88
2023/12/20 02:33:08;;;;;;;;;;;;;;;;;;10357637;28;19929;-87
2023/12/20 02:38:09;;;;;;;;;;;;;;;;;;10343768;28;19971;-86
2023/12/20 02:43:15;;;;;;;;;;;;;;;;;;10304305;28;19941;-85
2023/12/20 02:48:15;;;;;;;;;;;;;;;;;;10343137;28;19929;-86
2023/12/20 02:53:17;;;;;;;;;;;;;;;;;;10307967;28;19918;-86
2023/12/20 02:58:20;;;;;;;;;;;;;;;;;;10329239;28;19922;-85
2023/12/20 03:03:21;;;;;;;;;;;;;;;;;;10342214;28;19922;-87
2023/12/20 03:08:25;;;;;;;;;;;;;;;;;;10325500;28;22175;-85
2023/12/20 03:13:25;;;;;;;;;;;;;;;;;;10321774;28;19948;-86
2023/12/20 03:18:27;;;;;;;;;;;;;;;;;;10341829;28;19930;-84
2023/12/20 03:23:28;;;;;;;;;;;;;;;;;;10291693;28;20425;-87
2023/12/20 03:28:28;;;;;;;;;;;;;;;;;;10402243;23;19933;-82
2023/12/20 03:33:35;;;;;;;;;;;;;;;;;;10305320;28;20041;-87
2023/12/20 03:38:36;;;;;;;;;;;;;;;;;;10298240;28;20004;-88
2023/12/20 03:43:40;;;;;;;;;;;;;;;;;;10325504;28;19989;-88
2023/12/20 03:48:41;;;;;;;;;;;;;;;;;;10614337;23;19939;-94
2023/12/20 03:53:47;;;;;;;;;;;;;;;;;;10336060;28;19951;-94
2023/12/20 03:58:49;;;;;;;;;;;;;;;;;;10293348;28;19915;-93
2023/12/20 04:04:15;;;;;;;;;;;;;;;;;;10293116;28;20004;-92
2023/12/20 04:09:29;;;;;;;;;;;;;;;;;;10334885;28;20398;-92
2023/12/20 04:14:31;;;;;;;;;;;;;;;;;;10307208;28;20003;-92
2023/12/20 04:19:31;;;;;;;;;;;;;;;;;;10397945;23;19925;-85
2023/12/20 04:24:32;;;;;;;;;;;;;;;;;;10393099;28;20017;-85
2023/12/20 04:29:35;;;;;;;;;;;;;;;;;;10432807;23;19926;-92
2023/12/20 04:34:59;;;;;;;;;;;;;;;;;;10321380;28;19929;-90
2023/12/20 04:40:09;;;;;;;;;;;;;;;;;;10268204;28;20601;-93
2023/12/20 04:50:40;;;;;;;;;;;;;;;;;;8481973;26;19917;-85
2023/12/20 05:01:21;;;;;;;;;;;;;;;;;;10306961;28;19934;-93
2023/12/20 05:06:26;;;;;;;;;;;;;;;;;;10322218;28;19930;-92
2023/12/20 05:11:29;;;;;;;;;;;;;;;;;;10312686;28;19926;-93
2023/12/20 05:16:46;;;;;;;;;;;;;;;;;;10553919;23;19941;-92
2023/12/20 05:27:12;;;;;;;;;;;;;;;;;;10271533;28;19954;-91
2023/12/20 05:32:20;;;;;;;;;;;;;;;;;;10238509;28;19925;-95
2023/12/20 05:48:37;;;;;;;;;;;;;;;;;;10400083;23;19925;-87
2023/12/20 05:53:37;;;;;;;;;;;;;;;;;;10355773;28;20392;-87
2023/12/20 05:58:37;;;;;;;;;;;;;;;;;;10388704;28;19969;-89
2023/12/20 06:03:39;;;;;;;;;;;;;;;;;;10345846;28;19922;-87
2023/12/20 06:08:40;;;;;;;;;;;;;;;;;;10334332;28;19926;-89
2023/12/20 06:13:40;;;;;;;;;;;;;;;;;;10374983;28;19922;-89
2023/12/20 06:18:43;;;;;;;;;;;;;;;;;;10383682;28;19933;-88
2023/12/20 06:23:44;;;;;;;;;;;;;;;;;;10403838;28;19929;-87
2023/12/20 06:28:48;;;;;;;;;;;;;;;;;;10815247;23;20063;-84
2023/12/20 06:33:57;;;;;;;;;;;;;;;;;;10837863;23;19913;-88
2023/12/20 06:39:15;;;;;;;;;;;;;;;;;;10310165;28;19945;-88
2023/12/20 06:44:19;;;;;;;;;;;;;;;;;;10603600;23;19996;-87
2023/12/20 06:49:19;;;;;;;;;;;;;;;;;;10274004;28;19930;-85
2023/12/20 06:54:19;;;;;;;;;;;;;;;;;;10319047;28;19917;-84
2023/12/20 06:59:20;;;;;;;;;;;;;;;;;;10304883;28;19906;-86
2023/12/20 07:04:21;;;;;;;;;;;;;;;;;;10389488;28;19941;-86
2023/12/20 07:09:23;;;;;;;;;;;;;;;;;;10364683;28;19930;-87
2023/12/20 07:14:25;;;;;;;;;;;;;;;;;;10368937;28;19905;-82
2023/12/20 07:19:25;;;;;;;;;;;;;;;;;;10378677;28;19906;-84
2023/12/20 07:24:31;;;;;;;;;;;;;;;;;;10354538;28;19905;-85
2023/12/20 07:29:31;;;;;;;;;;;;;;;;;;10391804;28;19965;-88
2023/12/20 07:34:32;;;;;;;;;;;;;;;;;;10393861;28;19915;-84
2023/12/20 07:44:59;;;;;;;;;;;;;;;;;;10405052;23;19968;-86
2023/12/20 07:49:59;;;;;;;;;;;;;;;;;;10365302;28;19922;-88
2023/12/20 07:55:01;;;;;;;;;;;;;;;;;;10329080;28;19959;-84
2023/12/20 08:00:11;;;;;;;;;;;;;;;;;;10318626;28;24376;-87
2023/12/20 08:05:11;;;;;;;;;;;;;;;;;;10328583;28;19921;-83
2023/12/20 08:10:12;;;;;;;;;;;;;;;;;;10316411;28;19925;-84
2023/12/20 08:15:15;;;;;;;;;;;;;;;;;;10304522;28;19990;-83
2023/12/20 08:20:15;;;;;;;;;;;;;;;;;;10299071;28;19930;-86
2023/12/20 08:25:16;;;;;;;;;;;;;;;;;;10296807;28;20012;-85
2023/12/20 08:30:21;;;;;;;;;;;;;;;;;;10313724;28;19925;-87
2023/12/20 08:48:52;;;;;;;;;;;;;;;;;;12860602;22;2083954;-86
2023/12/20 08:53:52;;;;;;;;;;;;;;;;;;12964828;22;19985;-91
2023/12/20 08:58:54;;;;;;;;;;;;;;;;;;12974143;22;19923;-86
2023/12/20 09:03:57;;;;;;;;;;;;;;;;;;12930455;22;19915;-89
2023/12/20 09:08:57;;;;;;;;;;;;;;;;;;12994572;22;19916;-91
2023/12/20 09:13:59;;;;;;;;;;;;;;;;;;13013037;22;19948;-91
2023/12/20 09:19:03;;;;;;;;;;;;;;;;;;13073139;22;20044;-88
2023/12/20 09:24:09;;;;;;;;;;;;;;;;;;13002241;22;19911;-88
2023/12/20 09:29:18;;;;;;;;;;;;;;;;;;12749290;22;19917;-84
2023/12/20 09:34:19;;;;;;;;;;;;;;;;;;12711404;22;20169;-84
2023/12/20 09:39:20;;;;;;;;;;;;;;;;;;12756396;22;19917;-88
2023/12/20 09:49:46;;;;;;;;;;;;;;;;;;12988778;22;19907;-90
2023/12/20 09:54:48;;;;;;;;;;;;;;;;;;12897445;22;19950;-89
2023/12/20 09:59:48;;;;;;;;;;;;;;;;;;12718230;22;19912;-88
2023/12/20 10:04:48;;;;;;;;;;;;;;;;;;12895454;22;19916;-89
2023/12/20 10:09:50;;;;;;;;;;;;;;;;;;12800501;22;19921;-89
2023/12/20 10:14:51;;;;;;;;;;;;;;;;;;12749539;22;19923;-87
2023/12/20 10:19:51;;;;;;;;;;;;;;;;;;12848282;22;19920;-89
2023/12/20 10:24:51;;;;;;;;;;;;;;;;;;12805702;22;19919;-84
2023/12/20 10:29:53;;;;;;;;;;;;;;;;;;12749069;22;19916;-83
2023/12/20 10:34:53;;;;;;;;;;;;;;;;;;12746403;22;19928;-87
2023/12/20 10:39:57;;;;;;;;;;;;;;;;;;12737588;22;19941;-87
2023/12/20 10:44:58;;;;;;;;;;;;;;;;;;12769904;22;20377;-86
2023/12/20 10:49:59;;;;;;;;;;;;;;;;;;12765379;22;20414;-85
2023/12/20 10:55:00;;;;;;;;;;;;;;;;;;12750303;22;19927;-85
2023/12/20 11:00:00;;;;;;;;;;;;;;;;;;12729200;22;19916;-83
2023/12/20 11:05:01;;;;;;;;;;;;;;;;;;12770411;22;19916;-81
2023/12/20 11:26:29;;;;;;;;;;;;;;;;;;12757322;22;19947;-87
2023/12/20 11:31:31;;;;;;;;;;;;;;;;;;12723776;22;19943;-84
2023/12/20 11:36:33;;;;;;;;;;;;;;;;;;12813204;22;19931;-87
2023/12/20 11:41:40;;;;;;;;;;;;;;;;;;12785316;22;19950;-85
2023/12/20 11:46:40;;;;;;;;;;;;;;;;;;12757170;22;19983;-86
2023/12/20 11:51:44;;;;;;;;;;;;;;;;;;12726808;22;19939;-82
2023/12/20 11:56:46;;;;;;;;;;;;;;;;;;12768604;22;19937;-83
2023/12/20 12:01:50;;;;;;;;;;;;;;;;;;12805851;22;19912;-88
2023/12/20 12:06:51;;;;;;;;;;;;;;;;;;12822015;22;19935;-87
2023/12/20 12:11:51;;;;;;;;;;;;;;;;;;12783675;22;19916;-86
2023/12/20 12:17:17;;;;;;;;;;;;;;;;;;12783663;22;20319;-84
2023/12/20 12:22:19;;;;;;;;;;;;;;;;;;12795094;22;19925;-87
2023/12/20 12:27:25;;;;;;;;;;;;;;;;;;12772223;22;19919;-90
2023/12/20 12:32:26;;;;;;;;;;;;;;;;;;12780959;22;19995;-82
2023/12/20 12:37:26;;;;;;;;;;;;;;;;;;12771838;22;19924;-86
2023/12/20 12:42:28;;;;;;;;;;;;;;;;;;12760725;22;19931;-85
2023/12/20 12:47:29;;;;;;;;;;;;;;;;;;12733410;22;19927;-86
2023/12/20 12:52:29;;;;;;;;;;;;;;;;;;12783948;22;20242;-84
2023/12/20 12:57:29;;;;;;;;;;;;;;;;;;12773919;22;19925;-85
2023/12/20 13:02:29;;;;;;;;;;;;;;;;;;12779100;22;19954;-86
2023/12/20 13:07:30;;;;;;;;;;;;;;;;;;12737732;22;20275;-84
2023/12/20 13:12:31;;;;;;;;;;;;;;;;;;12764739;22;19928;-86
2023/12/20 13:17:32;;;;;;;;;;;;;;;;;;12753688;22;19924;-84
2023/12/20 13:22:32;;;;;;;;;;;;;;;;;;12760610;22;20299;-85
2023/12/20 13:27:32;;;;;;;;;;;;;;;;;;12794635;22;19927;-85
2023/12/20 13:32:33;;;;;;;;;;;;;;;;;;12832592;22;19912;-84
2023/12/20 13:37:34;;;;;;;;;;;;;;;;;;12814289;22;20424;-85
2023/12/20 13:42:36;;;;;;;;;;;;;;;;;;12834801;22;19981;-85
2023/12/20 13:47:36;;;;;;;;;;;;;;;;;;12837974;22;19939;-86
2023/12/20 13:52:38;;;;;;;;;;;;;;;;;;12935512;22;19927;-84
2023/12/20 13:57:43;;;;;;;;;;;;;;;;;;12818036;22;19924;-83
2023/12/20 14:02:46;;;;;;;;;;;;;;;;;;12820545;22;20731;-88
2023/12/20 14:07:47;;;;;;;;;;;;;;;;;;12911005;22;19926;-90
2023/12/20 14:12:53;;;;;;;;;;;;;;;;;;13072045;22;19907;-88
2023/12/20 14:17:54;;;;;;;;;;;;;;;;;;12877110;22;19920;-85
2023/12/20 14:22:55;;;;;;;;;;;;;;;;;;13041460;22;19928;-86
2023/12/20 14:27:55;;;;;;;;;;;;;;;;;;12888798;22;19951;-87
2023/12/20 14:32:56;;;;;;;;;;;;;;;;;;12992659;22;19901;-84
2023/12/20 14:37:58;;;;;;;;;;;;;;;;;;13115752;22;20015;-85
2023/12/20 14:43:00;;;;;;;;;;;;;;;;;;12923753;22;19916;-84
2023/12/20 14:48:00;;;;;;;;;;;;;;;;;;12872232;22;19914;-85
2023/12/20 14:53:04;;;;;;;;;;;;;;;;;;13004370;22;19977;-88
2023/12/20 14:58:08;;;;;;;;;;;;;;;;;;12841891;22;19920;-84
2023/12/20 15:03:08;;;;;;;;;;;;;;;;;;13000010;22;19923;-87
2023/12/20 15:08:10;;;;;;;;;;;;;;;;;;13020381;22;19946;-82
2023/12/20 15:13:16;;;;;;;;;;;;;;;;;;12981513;22;19915;-84
2023/12/20 15:18:19;;;;;;;;;;;;;;;;;;13047131;22;19919;-86
2023/12/20 15:23:21;;;;;;;;;;;;;;;;;;13046265;22;19949;-84
2023/12/20 15:28:23;;;;;;;;;;;;;;;;;;13021709;22;19976;-84
2023/12/20 15:33:23;;;;;;;;;;;;;;;;;;12997709;22;19934;-85
2023/12/20 15:43:38;;;;;;;;;;;;;;;;;;12858870;22;19920;-83
2023/12/20 15:48:39;;;;;;;;;;;;;;;;;;12762039;22;20293;-87
2023/12/20 15:53:41;;;;;;;;;;;;;;;;;;12847353;22;19919;-85
2023/12/20 15:58:43;;;;;;;;;;;;;;;;;;12763001;22;19954;-80
2023/12/20 16:03:43;;;;;;;;;;;;;;;;;;12782135;22;20000;-84
2023/12/20 16:08:44;;;;;;;;;;;;;;;;;;12851134;22;19915;-84
2023/12/20 16:13:46;;;;;;;;;;;;;;;;;;12781503;22;19913;-84
2023/12/20 16:18:49;;;;;;;;;;;;;;;;;;12806588;22;19918;-82
2023/12/20 16:23:49;;;;;;;;;;;;;;;;;;12925185;22;19965;-87
2023/12/20 16:28:51;;;;;;;;;;;;;;;;;;12832127;22;19915;-85
2023/12/20 16:33:54;;;;;;;;;;;;;;;;;;12763757;22;19917;-85
2023/12/20 16:39:03;;;;;;;;;;;;;;;;;;12774212;22;20242;-85
2023/12/20 16:44:03;;;;;;;;;;;;;;;;;;12863342;22;20301;-86
2023/12/20 16:49:06;;;;;;;;;;;;;;;;;;12794733;22;19927;-87
2023/12/20 16:54:11;;;;;;;;;;;;;;;;;;12766375;22;20015;-84
2023/12/20 16:59:12;;;;;;;;;;;;;;;;;;12850613;22;19916;-85
2023/12/20 17:04:16;;;;;;;;;;;;;;;;;;12728584;22;19921;-84
2023/12/20 17:09:21;;;;;;;;;;;;;;;;;;12706542;22;19917;-84
2023/12/20 17:14:21;;;;;;;;;;;;;;;;;;12731495;22;19924;-85
2023/12/20 17:19:23;;;;;;;;;;;;;;;;;;12922610;22;19907;-84
2023/12/20 17:24:31;;;;;;;;;;;;;;;;;;12904911;22;19916;-86
2023/12/20 17:29:33;;;;;;;;;;;;;;;;;;13016029;22;19910;-84
2023/12/20 17:34:36;;;;;;;;;;;;;;;;;;13005803;22;20346;-85
2023/12/20 17:39:38;;;;;;;;;;;;;;;;;;12913902;22;20056;-86
2023/12/20 17:44:38;;;;;;;;;;;;;;;;;;12877471;22;19933;-86
2023/12/20 17:49:38;;;;;;;;;;;;;;;;;;12964127;22;19948;-87
2023/12/20 17:54:39;;;;;;;;;;;;;;;;;;12961146;22;19923;-89
2023/12/20 17:59:41;;;;;;;;;;;;;;;;;;12965784;22;19919;-87
2023/12/20 18:04:42;;;;;;;;;;;;;;;;;;12965771;22;19907;-89
2023/12/20 18:09:44;;;;;;;;;;;;;;;;;;12963920;22;19955;-92
2023/12/20 18:14:46;;;;;;;;;;;;;;;;;;12958979;22;19924;-84
2023/12/20 18:19:47;;;;;;;;;;;;;;;;;;12890930;22;19971;-83
2023/12/20 18:24:50;;;;;;;;;;;;;;;;;;12837465;23;19931;-85
2023/12/20 18:29:50;;;;;;;;;;;;;;;;;;12781842;22;19920;-84
2023/12/20 18:34:51;;;;;;;;;;;;;;;;;;12765591;22;19965;-81
2023/12/20 18:39:51;;;;;;;;;;;;;;;;;;12791947;22;19917;-84
2023/12/20 18:44:52;;;;;;;;;;;;;;;;;;12784971;22;19923;-82
2023/12/20 18:49:53;;;;;;;;;;;;;;;;;;12800177;22;19939;-88
2023/12/20 18:54:55;;;;;;;;;;;;;;;;;;12810012;22;19924;-85
2023/12/20 18:59:55;;;;;;;;;;;;;;;;;;12815248;22;19946;-85
2023/12/20 19:04:59;;;;;;;;;;;;;;;;;;12816149;22;19931;-86
2023/12/20 19:10:01;;;;;;;;;;;;;;;;;;12809498;22;19912;-83
2023/12/20 19:15:07;;;;;;;;;;;;;;;;;;12882613;22;19924;-80
2023/12/20 19:20:11;;;;;;;;;;;;;;;;;;12849620;22;19915;-76
2023/12/20 19:25:13;;;;;;;;;;;;;;;;;;12884274;22;19911;-81
2023/12/20 19:30:14;;;;;;;;;;;;;;;;;;12888638;22;19915;-78
2023/12/20 19:35:14;;;;;;;;;;;;;;;;;;12813329;22;19948;-80
2023/12/20 19:40:14;;;;;;;;;;;;;;;;;;12816182;22;20558;-83
2023/12/20 19:45:18;;;;;;;;;;;;;;;;;;12834664;22;19994;-83
2023/12/20 19:50:20;;;;;;;;;;;;;;;;;;12803291;22;19920;-83
2023/12/20 19:55:20;;;;;;;;;;;;;;;;;;12872553;22;19991;-83
2023/12/20 20:00:22;;;;;;;;;;;;;;;;;;12863033;22;20223;-83
2023/12/20 20:05:25;;;;;;;;;;;;;;;;;;12824288;22;19916;-81
2023/12/20 20:10:25;;;;;;;;;;;;;;;;;;12820748;22;19922;-84
2023/12/20 20:15:25;;;;;;;;;;;;;;;;;;12803995;22;19946;-83
2023/12/20 20:20:25;;;;;;;;;;;;;;;;;;12811845;22;19958;-81
2023/12/20 20:25:27;;;;;;;;;;;;;;;;;;12809603;22;19982;-81
2023/12/20 20:30:27;;;;;;;;;;;;;;;;;;12815500;22;19912;-82
2023/12/20 20:35:29;;;;;;;;;;;;;;;;;;12780649;22;19924;-83
2023/12/20 20:40:29;;;;;;;;;;;;;;;;;;12809813;22;20358;-83
2023/12/20 20:45:31;;;;;;;;;;;;;;;;;;12831608;22;19958;-85
2023/12/20 20:50:32;;;;;;;;;;;;;;;;;;12852811;22;21375;-81
2023/12/20 20:55:32;;;;;;;;;;;;;;;;;;12821077;22;19923;-82
2023/12/20 21:00:32;;;;;;;;;;;;;;;;;;12817368;22;19945;-85
2023/12/20 21:05:35;;;;;;;;;;;;;;;;;;12837533;22;19916;-88
2023/12/20 21:10:37;;;;;;;;;;;;;;;;;;12800687;22;19914;-85
2023/12/20 21:15:38;;;;;;;;;;;;;;;;;;12815208;22;19908;-90
2023/12/20 21:20:44;;;;;;;;;;;;;;;;;;12870704;22;19912;-83
2023/12/20 21:25:46;;;;;;;;;;;;;;;;;;12840095;22;19923;-82
2023/12/20 21:30:49;;;;;;;;;;;;;;;;;;12853442;22;19920;-85
2023/12/20 21:35:51;;;;;;;;;;;;;;;;;;12821927;22;19908;-87
2023/12/20 21:40:53;;;;;;;;;;;;;;;;;;12830223;22;19950;-84
2023/12/20 21:45:56;;;;;;;;;;;;;;;;;;12857770;22;19936;-85
2023/12/20 21:51:37;;;;;;;;;;;;;;;;;;12878414;22;19912;-84
2023/12/20 21:56:42;;;;;;;;;;;;;;;;;;12817980;22;20058;-85
2023/12/20 22:01:43;;;;;;;;;;;;;;;;;;12803229;22;19927;-83
2023/12/20 22:06:43;;;;;;;;;;;;;;;;;;12798027;22;19926;-83
2023/12/20 22:11:45;;;;;;;;;;;;;;;;;;12799686;22;19940;-85
2023/12/20 22:16:45;;;;;;;;;;;;;;;;;;12840358;22;19931;-84
2023/12/20 22:21:48;;;;;;;;;;;;;;;;;;12859583;22;19935;-85
2023/12/20 22:26:52;;;;;;;;;;;;;;;;;;12788745;22;20007;-85
2023/12/20 22:31:56;;;;;;;;;;;;;;;;;;12811146;22;20771;-85
2023/12/20 22:37:00;;;;;;;;;;;;;;;;;;12797268;22;20316;-84
2023/12/20 22:42:02;;;;;;;;;;;;;;;;;;12814701;22;19916;-84
2023/12/20 22:47:10;;;;;;;;;;;;;;;;;;12821734;22;19943;-83
2023/12/20 22:52:13;;;;;;;;;;;;;;;;;;12809056;22;20003;-82
2023/12/20 22:57:22;;;;;;;;;;;;;;;;;;12822332;22;20666;-82
2023/12/20 23:02:27;;;;;;;;;;;;;;;;;;12812843;22;19927;-81
2023/12/20 23:07:27;;;;;;;;;;;;;;;;;;12832835;22;19989;-83
2023/12/20 23:12:31;;;;;;;;;;;;;;;;;;12817100;22;19916;-82
2023/12/20 23:17:34;;;;;;;;;;;;;;;;;;12814014;22;20243;-86
2023/12/20 23:22:35;;;;;;;;;;;;;;;;;;12849318;22;19950;-85
2023/12/20 23:27:35;;;;;;;;;;;;;;;;;;12830746;22;19916;-87
2023/12/20 23:32:35;;;;;;;;;;;;;;;;;;12855738;22;19933;-89
2023/12/20 23:37:41;;;;;;;;;;;;;;;;;;12861367;22;19948;-88
2023/12/20 23:42:46;;;;;;;;;;;;;;;;;;12890280;22;19918;-87
2023/12/20 23:47:47;;;;;;;;;;;;;;;;;;12852824;22;19922;-86
2023/12/20 23:52:49;;;;;;;;;;;;;;;;;;12892983;22;19900;-86
2023/12/20 23:57:50;;;;;;;;;;;;;;;;;;12852358;22;19908;-91
